sensor_id;sensor_type;location;lat;lon;timestamp;P1;durP1;ratioP1;P2;durP2;ratioP2
33844;SDS011;20145;43.118;25.694;2023-07-13T00:00:11;17.55;;;11.70;;
33844;SDS011;20145;43.118;25.694;2023-07-13T00:02:40;16.60;;;11.48;;
33844;SDS011;20145;43.118;25.694;2023-07-13T00:05:06;17.08;;;11.00;;
33844;SDS011;20145;43.118;25.694;2023-07-13T00:07:33;16.92;;;10.98;;
33844;SDS011;20145;43.118;25.694;2023-07-13T00:09:59;16.77;;;11.50;;
33844;SDS011;20145;43.118;25.694;2023-07-13T00:12:26;14.05;;;10.98;;
33844;SDS011;20145;43.118;25.694;2023-07-13T00:14:55;14.82;;;11.52;;
33844;SDS011;20145;43.118;25.694;2023-07-13T00:17:23;13.70;;;11.40;;
33844;SDS011;20145;43.118;25.694;2023-07-13T00:19:49;13.40;;;11.25;;
33844;SDS011;20145;43.118;25.694;2023-07-13T00:22:15;14.50;;;11.95;;
33844;SDS011;20145;43.118;25.694;2023-07-13T00:24:41;13.90;;;12.40;;
33844;SDS011;20145;43.118;25.694;2023-07-13T00:27:09;13.32;;;12.02;;
33844;SDS011;20145;43.118;25.694;2023-07-13T00:29:35;17.27;;;11.93;;
33844;SDS011;20145;43.118;25.694;2023-07-13T00:32:02;14.20;;;11.65;;
33844;SDS011;20145;43.118;25.694;2023-07-13T00:34:29;16.33;;;11.40;;
33844;SDS011;20145;43.118;25.694;2023-07-13T00:36:55;15.05;;;11.50;;
33844;SDS011;20145;43.118;25.694;2023-07-13T00:39:21;14.43;;;11.48;;
33844;SDS011;20145;43.118;25.694;2023-07-13T00:41:47;13.98;;;11.27;;
33844;SDS011;20145;43.118;25.694;2023-07-13T00:44:14;13.60;;;11.27;;
33844;SDS011;20145;43.118;25.694;2023-07-13T00:46:41;13.40;;;10.98;;
33844;SDS011;20145;43.118;25.694;2023-07-13T00:49:07;15.13;;;10.55;;
33844;SDS011;20145;43.118;25.694;2023-07-13T00:51:40;12.25;;;10.95;;
33844;SDS011;20145;43.118;25.694;2023-07-13T00:54:14;14.55;;;11.50;;
33844;SDS011;20145;43.118;25.694;2023-07-13T00:56:44;15.23;;;11.57;;
33844;SDS011;20145;43.118;25.694;2023-07-13T00:59:11;13.98;;;11.27;;
33844;SDS011;20145;43.118;25.694;2023-07-13T01:01:38;13.05;;;11.23;;
33844;SDS011;20145;43.118;25.694;2023-07-13T01:04:04;13.30;;;10.77;;
33844;SDS011;20145;43.118;25.694;2023-07-13T01:06:34;13.30;;;11.38;;
33844;SDS011;20145;43.118;25.694;2023-07-13T01:09:01;15.07;;;11.05;;
33844;SDS011;20145;43.118;25.694;2023-07-13T01:11:27;15.98;;;12.07;;
33844;SDS011;20145;43.118;25.694;2023-07-13T01:13:52;14.70;;;11.45;;
33844;SDS011;20145;43.118;25.694;2023-07-13T01:16:22;16.60;;;11.80;;
33844;SDS011;20145;43.118;25.694;2023-07-13T01:18:52;13.25;;;11.40;;
33844;SDS011;20145;43.118;25.694;2023-07-13T01:21:18;19.35;;;11.13;;
33844;SDS011;20145;43.118;25.694;2023-07-13T01:23:44;14.02;;;11.25;;
33844;SDS011;20145;43.118;25.694;2023-07-13T01:26:10;15.55;;;10.52;;
33844;SDS011;20145;43.118;25.694;2023-07-13T01:28:37;12.77;;;11.40;;
33844;SDS011;20145;43.118;25.694;2023-07-13T01:31:03;11.90;;;10.70;;
33844;SDS011;20145;43.118;25.694;2023-07-13T01:33:29;14.43;;;10.77;;
33844;SDS011;20145;43.118;25.694;2023-07-13T01:35:55;14.20;;;10.98;;
33844;SDS011;20145;43.118;25.694;2023-07-13T01:38:22;13.90;;;10.43;;
33844;SDS011;20145;43.118;25.694;2023-07-13T01:40:49;18.67;;;12.98;;
33844;SDS011;20145;43.118;25.694;2023-07-13T01:43:17;13.93;;;11.75;;
33844;SDS011;20145;43.118;25.694;2023-07-13T01:45:44;15.57;;;12.93;;
33844;SDS011;20145;43.118;25.694;2023-07-13T01:48:10;16.90;;;13.23;;
33844;SDS011;20145;43.118;25.694;2023-07-13T01:50:36;15.80;;;12.55;;
33844;SDS011;20145;43.118;25.694;2023-07-13T01:53:02;15.23;;;12.88;;
33844;SDS011;20145;43.118;25.694;2023-07-13T01:55:28;14.30;;;11.82;;
33844;SDS011;20145;43.118;25.694;2023-07-13T01:57:55;11.93;;;10.63;;
33844;SDS011;20145;43.118;25.694;2023-07-13T02:00:21;15.70;;;11.32;;
33844;SDS011;20145;43.118;25.694;2023-07-13T02:02:47;13.85;;;11.35;;
33844;SDS011;20145;43.118;25.694;2023-07-13T02:05:12;15.23;;;12.10;;
33844;SDS011;20145;43.118;25.694;2023-07-13T02:07:39;17.15;;;12.65;;
33844;SDS011;20145;43.118;25.694;2023-07-13T02:10:06;14.02;;;11.93;;
33844;SDS011;20145;43.118;25.694;2023-07-13T02:12:33;17.45;;;11.95;;
33844;SDS011;20145;43.118;25.694;2023-07-13T02:14:59;15.15;;;12.75;;
33844;SDS011;20145;43.118;25.694;2023-07-13T02:17:25;13.93;;;10.32;;
33844;SDS011;20145;43.118;25.694;2023-07-13T02:19:52;14.77;;;10.65;;
33844;SDS011;20145;43.118;25.694;2023-07-13T02:22:17;15.55;;;10.52;;
33844;SDS011;20145;43.118;25.694;2023-07-13T02:24:43;14.02;;;10.85;;
33844;SDS011;20145;43.118;25.694;2023-07-13T02:27:08;17.02;;;11.45;;
33844;SDS011;20145;43.118;25.694;2023-07-13T02:29:34;12.15;;;10.82;;
33844;SDS011;20145;43.118;25.694;2023-07-13T02:31:59;15.27;;;10.02;;
33844;SDS011;20145;43.118;25.694;2023-07-13T02:34:25;13.00;;;11.15;;
33844;SDS011;20145;43.118;25.694;2023-07-13T02:36:51;12.15;;;10.68;;
33844;SDS011;20145;43.118;25.694;2023-07-13T02:39:16;15.65;;;10.85;;
33844;SDS011;20145;43.118;25.694;2023-07-13T02:41:42;13.98;;;10.20;;
33844;SDS011;20145;43.118;25.694;2023-07-13T02:44:07;12.00;;;10.10;;
33844;SDS011;20145;43.118;25.694;2023-07-13T02:46:34;12.90;;;11.23;;
33844;SDS011;20145;43.118;25.694;2023-07-13T02:49:01;13.68;;;11.05;;
33844;SDS011;20145;43.118;25.694;2023-07-13T02:51:27;13.77;;;10.82;;
33844;SDS011;20145;43.118;25.694;2023-07-13T02:53:53;15.55;;;11.38;;
33844;SDS011;20145;43.118;25.694;2023-07-13T02:56:22;13.68;;;9.75;;
33844;SDS011;20145;43.118;25.694;2023-07-13T02:58:49;12.27;;;10.18;;
33844;SDS011;20145;43.118;25.694;2023-07-13T03:01:15;14.60;;;10.80;;
33844;SDS011;20145;43.118;25.694;2023-07-13T03:03:46;15.68;;;10.75;;
33844;SDS011;20145;43.118;25.694;2023-07-13T03:06:16;14.77;;;10.63;;
33844;SDS011;20145;43.118;25.694;2023-07-13T03:08:43;12.35;;;9.68;;
33844;SDS011;20145;43.118;25.694;2023-07-13T03:11:17;12.80;;;10.65;;
33844;SDS011;20145;43.118;25.694;2023-07-13T03:13:44;14.00;;;10.02;;
33844;SDS011;20145;43.118;25.694;2023-07-13T03:16:10;12.50;;;10.93;;
33844;SDS011;20145;43.118;25.694;2023-07-13T03:18:37;12.02;;;10.32;;
33844;SDS011;20145;43.118;25.694;2023-07-13T03:21:04;13.02;;;10.13;;
33844;SDS011;20145;43.118;25.694;2023-07-13T03:23:30;11.05;;;9.80;;
33844;SDS011;20145;43.118;25.694;2023-07-13T03:26:09;11.60;;;9.82;;
33844;SDS011;20145;43.118;25.694;2023-07-13T03:28:40;13.40;;;11.10;;
33844;SDS011;20145;43.118;25.694;2023-07-13T03:31:11;14.63;;;11.13;;
33844;SDS011;20145;43.118;25.694;2023-07-13T03:33:41;12.23;;;10.35;;
33844;SDS011;20145;43.118;25.694;2023-07-13T03:36:09;15.52;;;10.50;;
33844;SDS011;20145;43.118;25.694;2023-07-13T03:38:38;14.05;;;10.82;;
33844;SDS011;20145;43.118;25.694;2023-07-13T03:41:03;12.40;;;9.80;;
33844;SDS011;20145;43.118;25.694;2023-07-13T03:43:29;13.50;;;10.55;;
33844;SDS011;20145;43.118;25.694;2023-07-13T03:45:55;12.32;;;10.13;;
33844;SDS011;20145;43.118;25.694;2023-07-13T03:48:20;13.00;;;10.77;;
33844;SDS011;20145;43.118;25.694;2023-07-13T03:50:46;14.02;;;10.05;;
33844;SDS011;20145;43.118;25.694;2023-07-13T03:53:12;13.93;;;9.80;;
33844;SDS011;20145;43.118;25.694;2023-07-13T03:55:38;13.57;;;10.60;;
33844;SDS011;20145;43.118;25.694;2023-07-13T04:00:55;14.73;;;11.20;;
33844;SDS011;20145;43.118;25.694;2023-07-13T04:03:22;12.98;;;9.70;;
33844;SDS011;20145;43.118;25.694;2023-07-13T04:05:48;17.27;;;10.55;;
33844;SDS011;20145;43.118;25.694;2023-07-13T04:08:14;14.63;;;10.95;;
33844;SDS011;20145;43.118;25.694;2023-07-13T04:10:40;13.80;;;10.93;;
33844;SDS011;20145;43.118;25.694;2023-07-13T04:13:05;17.88;;;12.63;;
33844;SDS011;20145;43.118;25.694;2023-07-13T04:15:31;19.02;;;12.63;;
33844;SDS011;20145;43.118;25.694;2023-07-13T04:17:57;18.27;;;13.38;;
33844;SDS011;20145;43.118;25.694;2023-07-13T04:20:24;19.58;;;13.07;;
33844;SDS011;20145;43.118;25.694;2023-07-13T04:22:50;14.18;;;12.18;;
33844;SDS011;20145;43.118;25.694;2023-07-13T04:25:15;21.25;;;12.23;;
33844;SDS011;20145;43.118;25.694;2023-07-13T04:27:41;15.52;;;11.38;;
33844;SDS011;20145;43.118;25.694;2023-07-13T04:30:07;14.30;;;11.55;;
33844;SDS011;20145;43.118;25.694;2023-07-13T04:32:33;13.80;;;11.32;;
33844;SDS011;20145;43.118;25.694;2023-07-13T04:34:59;20.05;;;11.77;;
33844;SDS011;20145;43.118;25.694;2023-07-13T04:37:27;20.92;;;12.13;;
33844;SDS011;20145;43.118;25.694;2023-07-13T04:39:53;19.10;;;11.13;;
33844;SDS011;20145;43.118;25.694;2023-07-13T04:42:19;17.65;;;11.95;;
33844;SDS011;20145;43.118;25.694;2023-07-13T04:44:48;16.75;;;13.05;;
33844;SDS011;20145;43.118;25.694;2023-07-13T04:47:15;17.67;;;12.60;;
33844;SDS011;20145;43.118;25.694;2023-07-13T04:49:40;18.25;;;12.20;;
33844;SDS011;20145;43.118;25.694;2023-07-13T04:52:06;15.73;;;11.85;;
33844;SDS011;20145;43.118;25.694;2023-07-13T04:54:33;15.70;;;12.05;;
33844;SDS011;20145;43.118;25.694;2023-07-13T04:56:59;19.60;;;13.52;;
33844;SDS011;20145;43.118;25.694;2023-07-13T04:59:26;30.20;;;15.73;;
33844;SDS011;20145;43.118;25.694;2023-07-13T05:01:52;26.20;;;15.93;;
33844;SDS011;20145;43.118;25.694;2023-07-13T05:04:18;26.08;;;15.15;;
33844;SDS011;20145;43.118;25.694;2023-07-13T05:06:43;22.27;;;15.75;;
33844;SDS011;20145;43.118;25.694;2023-07-13T05:09:09;18.65;;;16.13;;
33844;SDS011;20145;43.118;25.694;2023-07-13T05:11:34;28.55;;;15.23;;
33844;SDS011;20145;43.118;25.694;2023-07-13T05:14:00;22.48;;;16.30;;
33844;SDS011;20145;43.118;25.694;2023-07-13T05:16:27;20.20;;;15.23;;
33844;SDS011;20145;43.118;25.694;2023-07-13T05:18:53;16.90;;;14.77;;
33844;SDS011;20145;43.118;25.694;2023-07-13T05:21:19;23.75;;;15.13;;
33844;SDS011;20145;43.118;25.694;2023-07-13T05:23:45;18.10;;;16.27;;
33844;SDS011;20145;43.118;25.694;2023-07-13T05:26:11;19.83;;;17.05;;
33844;SDS011;20145;43.118;25.694;2023-07-13T05:28:37;23.17;;;16.45;;
33844;SDS011;20145;43.118;25.694;2023-07-13T05:31:03;17.48;;;15.30;;
33844;SDS011;20145;43.118;25.694;2023-07-13T05:33:30;17.75;;;15.38;;
33844;SDS011;20145;43.118;25.694;2023-07-13T05:35:55;19.35;;;15.77;;
33844;SDS011;20145;43.118;25.694;2023-07-13T05:38:21;20.23;;;15.27;;
33844;SDS011;20145;43.118;25.694;2023-07-13T05:40:47;18.70;;;16.02;;
33844;SDS011;20145;43.118;25.694;2023-07-13T05:43:13;16.85;;;15.00;;
33844;SDS011;20145;43.118;25.694;2023-07-13T05:45:39;18.77;;;14.40;;
33844;SDS011;20145;43.118;25.694;2023-07-13T05:48:05;17.67;;;15.68;;
33844;SDS011;20145;43.118;25.694;2023-07-13T05:50:30;21.13;;;16.40;;
33844;SDS011;20145;43.118;25.694;2023-07-13T05:52:57;20.10;;;16.33;;
33844;SDS011;20145;43.118;25.694;2023-07-13T05:55:22;28.02;;;14.98;;
33844;SDS011;20145;43.118;25.694;2023-07-13T05:57:48;20.02;;;14.40;;
33844;SDS011;20145;43.118;25.694;2023-07-13T06:00:13;16.35;;;12.95;;
33844;SDS011;20145;43.118;25.694;2023-07-13T06:02:40;17.17;;;13.90;;
33844;SDS011;20145;43.118;25.694;2023-07-13T06:05:05;12.25;;;10.82;;
33844;SDS011;20145;43.118;25.694;2023-07-13T06:07:31;16.08;;;10.32;;
33844;SDS011;20145;43.118;25.694;2023-07-13T06:09:57;17.02;;;13.15;;
33844;SDS011;20145;43.118;25.694;2023-07-13T06:12:24;19.20;;;13.80;;
33844;SDS011;20145;43.118;25.694;2023-07-13T06:14:50;17.77;;;12.95;;
33844;SDS011;20145;43.118;25.694;2023-07-13T06:17:16;16.30;;;12.02;;
33844;SDS011;20145;43.118;25.694;2023-07-13T06:19:41;19.20;;;12.25;;
33844;SDS011;20145;43.118;25.694;2023-07-13T06:22:07;17.90;;;11.48;;
33844;SDS011;20145;43.118;25.694;2023-07-13T06:24:33;14.20;;;10.75;;
33844;SDS011;20145;43.118;25.694;2023-07-13T06:26:58;16.33;;;9.35;;
33844;SDS011;20145;43.118;25.694;2023-07-13T06:29:24;20.38;;;9.63;;
33844;SDS011;20145;43.118;25.694;2023-07-13T06:31:50;10.88;;;7.25;;
33844;SDS011;20145;43.118;25.694;2023-07-13T06:34:15;10.13;;;7.57;;
33844;SDS011;20145;43.118;25.694;2023-07-13T06:36:41;9.77;;;7.00;;
33844;SDS011;20145;43.118;25.694;2023-07-13T06:39:07;16.73;;;10.52;;
33844;SDS011;20145;43.118;25.694;2023-07-13T06:41:33;20.95;;;12.55;;
33844;SDS011;20145;43.118;25.694;2023-07-13T06:43:59;14.85;;;12.18;;
33844;SDS011;20145;43.118;25.694;2023-07-13T06:46:25;21.15;;;13.05;;
33844;SDS011;20145;43.118;25.694;2023-07-13T06:48:51;19.48;;;11.95;;
33844;SDS011;20145;43.118;25.694;2023-07-13T06:51:16;17.05;;;11.75;;
33844;SDS011;20145;43.118;25.694;2023-07-13T06:53:42;16.40;;;12.23;;
33844;SDS011;20145;43.118;25.694;2023-07-13T06:56:09;14.48;;;11.52;;
33844;SDS011;20145;43.118;25.694;2023-07-13T06:58:36;14.98;;;11.32;;
33844;SDS011;20145;43.118;25.694;2023-07-13T07:01:02;12.88;;;11.52;;
33844;SDS011;20145;43.118;25.694;2023-07-13T07:03:29;13.05;;;11.75;;
33844;SDS011;20145;43.118;25.694;2023-07-13T07:05:59;15.55;;;11.48;;
33844;SDS011;20145;43.118;25.694;2023-07-13T07:08:25;11.90;;;10.70;;
33844;SDS011;20145;43.118;25.694;2023-07-13T07:10:51;12.10;;;10.98;;
33844;SDS011;20145;43.118;25.694;2023-07-13T07:13:19;12.68;;;11.38;;
33844;SDS011;20145;43.118;25.694;2023-07-13T07:15:45;17.10;;;12.30;;
33844;SDS011;20145;43.118;25.694;2023-07-13T07:18:10;15.00;;;11.10;;
33844;SDS011;20145;43.118;25.694;2023-07-13T07:20:36;12.73;;;11.40;;
33844;SDS011;20145;43.118;25.694;2023-07-13T07:23:02;12.02;;;10.73;;
33844;SDS011;20145;43.118;25.694;2023-07-13T07:25:27;12.95;;;11.68;;
33844;SDS011;20145;43.118;25.694;2023-07-13T07:27:57;14.63;;;11.10;;
33844;SDS011;20145;43.118;25.694;2023-07-13T07:30:23;11.63;;;10.35;;
33844;SDS011;20145;43.118;25.694;2023-07-13T07:32:48;12.20;;;10.50;;
33844;SDS011;20145;43.118;25.694;2023-07-13T07:35:14;15.13;;;10.48;;
33844;SDS011;20145;43.118;25.694;2023-07-13T07:37:39;15.75;;;9.90;;
33844;SDS011;20145;43.118;25.694;2023-07-13T07:40:05;14.73;;;9.77;;
33844;SDS011;20145;43.118;25.694;2023-07-13T07:42:31;14.60;;;10.05;;
33844;SDS011;20145;43.118;25.694;2023-07-13T07:44:57;11.55;;;9.00;;
33844;SDS011;20145;43.118;25.694;2023-07-13T07:47:23;11.82;;;10.05;;
33844;SDS011;20145;43.118;25.694;2023-07-13T07:49:49;9.52;;;8.52;;
33844;SDS011;20145;43.118;25.694;2023-07-13T07:52:15;12.25;;;9.00;;
33844;SDS011;20145;43.118;25.694;2023-07-13T07:54:40;13.88;;;8.90;;
33844;SDS011;20145;43.118;25.694;2023-07-13T07:57:06;10.30;;;9.27;;
33844;SDS011;20145;43.118;25.694;2023-07-13T07:59:33;15.20;;;9.57;;
33844;SDS011;20145;43.118;25.694;2023-07-13T08:01:58;9.73;;;8.73;;
33844;SDS011;20145;43.118;25.694;2023-07-13T08:04:24;14.45;;;8.95;;
33844;SDS011;20145;43.118;25.694;2023-07-13T08:06:49;14.40;;;9.30;;
33844;SDS011;20145;43.118;25.694;2023-07-13T08:09:15;14.80;;;9.38;;
33844;SDS011;20145;43.118;25.694;2023-07-13T08:11:41;9.75;;;8.75;;
33844;SDS011;20145;43.118;25.694;2023-07-13T08:14:06;9.77;;;7.90;;
33844;SDS011;20145;43.118;25.694;2023-07-13T08:16:32;10.60;;;8.43;;
33844;SDS011;20145;43.118;25.694;2023-07-13T08:18:58;16.92;;;8.27;;
33844;SDS011;20145;43.118;25.694;2023-07-13T08:21:23;10.07;;;8.43;;
33844;SDS011;20145;43.118;25.694;2023-07-13T08:23:49;10.38;;;7.80;;
33844;SDS011;20145;43.118;25.694;2023-07-13T08:26:14;10.45;;;8.50;;
33844;SDS011;20145;43.118;25.694;2023-07-13T08:28:40;10.25;;;8.48;;
33844;SDS011;20145;43.118;25.694;2023-07-13T08:31:07;12.88;;;8.48;;
33844;SDS011;20145;43.118;25.694;2023-07-13T08:33:34;11.95;;;8.00;;
33844;SDS011;20145;43.118;25.694;2023-07-13T08:36:01;11.40;;;7.88;;
33844;SDS011;20145;43.118;25.694;2023-07-13T08:38:27;9.02;;;7.18;;
33844;SDS011;20145;43.118;25.694;2023-07-13T08:40:53;9.07;;;8.18;;
33844;SDS011;20145;43.118;25.694;2023-07-13T08:43:28;15.38;;;8.95;;
33844;SDS011;20145;43.118;25.694;2023-07-13T08:48:33;10.60;;;7.47;;
33844;SDS011;20145;43.118;25.694;2023-07-13T08:53:46;11.55;;;7.50;;
33844;SDS011;20145;43.118;25.694;2023-07-13T08:56:18;9.52;;;6.85;;
33844;SDS011;20145;43.118;25.694;2023-07-13T08:58:47;11.85;;;5.20;;
33844;SDS011;20145;43.118;25.694;2023-07-13T09:01:21;7.93;;;5.35;;
33844;SDS011;20145;43.118;25.694;2023-07-13T09:04:05;9.93;;;5.47;;
33844;SDS011;20145;43.118;25.694;2023-07-13T09:10:01;9.45;;;5.70;;
33844;SDS011;20145;43.118;25.694;2023-07-13T09:18:03;8.63;;;7.25;;
33844;SDS011;20145;43.118;25.694;2023-07-13T09:20:37;6.95;;;5.68;;
33844;SDS011;20145;43.118;25.694;2023-07-13T09:23:13;10.73;;;5.25;;
33844;SDS011;20145;43.118;25.694;2023-07-13T09:25:43;9.35;;;5.75;;
33844;SDS011;20145;43.118;25.694;2023-07-13T09:28:15;12.50;;;5.80;;
33844;SDS011;20145;43.118;25.694;2023-07-13T09:33:21;7.70;;;5.30;;
33844;SDS011;20145;43.118;25.694;2023-07-13T09:35:48;7.13;;;5.30;;
33844;SDS011;20145;43.118;25.694;2023-07-13T09:38:15;10.48;;;6.28;;
33844;SDS011;20145;43.118;25.694;2023-07-13T09:41:31;9.40;;;5.35;;
33844;SDS011;20145;43.118;25.694;2023-07-13T09:44:10;7.15;;;5.45;;
33844;SDS011;20145;43.118;25.694;2023-07-13T09:46:38;9.98;;;5.00;;
33844;SDS011;20145;43.118;25.694;2023-07-13T09:49:09;8.85;;;5.32;;
33844;SDS011;20145;43.118;25.694;2023-07-13T09:51:36;11.15;;;5.70;;
33844;SDS011;20145;43.118;25.694;2023-07-13T09:54:19;8.20;;;5.32;;
33844;SDS011;20145;43.118;25.694;2023-07-13T09:56:46;11.88;;;5.13;;
33844;SDS011;20145;43.118;25.694;2023-07-13T09:59:19;7.70;;;5.32;;
33844;SDS011;20145;43.118;25.694;2023-07-13T10:01:46;7.40;;;5.05;;
33844;SDS011;20145;43.118;25.694;2023-07-13T10:04:14;8.43;;;4.80;;
33844;SDS011;20145;43.118;25.694;2023-07-13T10:06:44;12.93;;;5.55;;
33844;SDS011;20145;43.118;25.694;2023-07-13T10:09:10;7.70;;;5.78;;
33844;SDS011;20145;43.118;25.694;2023-07-13T10:11:40;7.05;;;4.10;;
33844;SDS011;20145;43.118;25.694;2023-07-13T10:14:11;14.98;;;4.95;;
33844;SDS011;20145;43.118;25.694;2023-07-13T10:16:39;8.40;;;4.22;;
33844;SDS011;20145;43.118;25.694;2023-07-13T10:21:52;6.78;;;4.03;;
33844;SDS011;20145;43.118;25.694;2023-07-13T10:24:24;7.80;;;4.30;;
33844;SDS011;20145;43.118;25.694;2023-07-13T10:26:56;7.07;;;4.82;;
33844;SDS011;20145;43.118;25.694;2023-07-13T10:29:29;7.45;;;3.70;;
33844;SDS011;20145;43.118;25.694;2023-07-13T10:32:01;11.98;;;4.10;;
33844;SDS011;20145;43.118;25.694;2023-07-13T10:34:27;8.40;;;4.22;;
33844;SDS011;20145;43.118;25.694;2023-07-13T10:36:53;10.10;;;5.75;;
33844;SDS011;20145;43.118;25.694;2023-07-13T10:39:20;8.80;;;5.70;;
33844;SDS011;20145;43.118;25.694;2023-07-13T10:41:59;9.13;;;5.38;;
33844;SDS011;20145;43.118;25.694;2023-07-13T10:44:31;10.57;;;6.13;;
33844;SDS011;20145;43.118;25.694;2023-07-13T10:46:59;12.98;;;5.45;;
33844;SDS011;20145;43.118;25.694;2023-07-13T10:49:38;8.48;;;5.38;;
33844;SDS011;20145;43.118;25.694;2023-07-13T10:52:20;8.05;;;4.03;;
33844;SDS011;20145;43.118;25.694;2023-07-13T11:00:47;7.05;;;4.65;;
33844;SDS011;20145;43.118;25.694;2023-07-13T11:03:17;7.88;;;4.40;;
33844;SDS011;20145;43.118;25.694;2023-07-13T11:05:47;9.18;;;4.80;;
33844;SDS011;20145;43.118;25.694;2023-07-13T11:11:01;7.47;;;4.68;;
33844;SDS011;20145;43.118;25.694;2023-07-13T11:13:38;14.68;;;4.97;;
33844;SDS011;20145;43.118;25.694;2023-07-13T11:18:46;5.07;;;4.28;;
33844;SDS011;20145;43.118;25.694;2023-07-13T11:21:20;6.82;;;4.68;;
33844;SDS011;20145;43.118;25.694;2023-07-13T11:24:00;10.18;;;4.00;;
33844;SDS011;20145;43.118;25.694;2023-07-13T11:29:23;10.30;;;4.78;;
33844;SDS011;20145;43.118;25.694;2023-07-13T11:32:20;8.63;;;5.20;;
33844;SDS011;20145;43.118;25.694;2023-07-13T11:34:51;10.93;;;5.03;;
33844;SDS011;20145;43.118;25.694;2023-07-13T11:37:19;7.53;;;3.90;;
33844;SDS011;20145;43.118;25.694;2023-07-13T11:39:49;10.32;;;4.57;;
33844;SDS011;20145;43.118;25.694;2023-07-13T11:42:18;11.52;;;3.55;;
33844;SDS011;20145;43.118;25.694;2023-07-13T11:44:48;5.45;;;3.65;;
33844;SDS011;20145;43.118;25.694;2023-07-13T11:47:19;11.33;;;4.83;;
33844;SDS011;20145;43.118;25.694;2023-07-13T11:49:50;5.43;;;3.67;;
33844;SDS011;20145;43.118;25.694;2023-07-13T11:52:21;5.82;;;3.45;;
33844;SDS011;20145;43.118;25.694;2023-07-13T11:54:53;10.65;;;4.18;;
33844;SDS011;20145;43.118;25.694;2023-07-13T12:00:11;5.88;;;3.72;;
33844;SDS011;20145;43.118;25.694;2023-07-13T12:02:44;5.50;;;3.67;;
33844;SDS011;20145;43.118;25.694;2023-07-13T12:05:14;6.38;;;3.35;;
33844;SDS011;20145;43.118;25.694;2023-07-13T12:07:43;7.07;;;3.90;;
33844;SDS011;20145;43.118;25.694;2023-07-13T12:12:46;9.70;;;5.10;;
33844;SDS011;20145;43.118;25.694;2023-07-13T12:15:22;9.52;;;4.80;;
33844;SDS011;20145;43.118;25.694;2023-07-13T12:17:49;7.55;;;4.72;;
33844;SDS011;20145;43.118;25.694;2023-07-13T12:20:23;7.95;;;4.68;;
33844;SDS011;20145;43.118;25.694;2023-07-13T12:23:00;5.60;;;3.90;;
33844;SDS011;20145;43.118;25.694;2023-07-13T12:25:27;11.25;;;3.90;;
33844;SDS011;20145;43.118;25.694;2023-07-13T12:27:53;6.80;;;3.97;;
33844;SDS011;20145;43.118;25.694;2023-07-13T12:33:08;8.70;;;3.85;;
33844;SDS011;20145;43.118;25.694;2023-07-13T12:35:47;12.15;;;3.70;;
33844;SDS011;20145;43.118;25.694;2023-07-13T12:38:15;8.43;;;4.05;;
33844;SDS011;20145;43.118;25.694;2023-07-13T12:40:41;8.27;;;3.58;;
33844;SDS011;20145;43.118;25.694;2023-07-13T12:43:14;8.15;;;4.00;;
33844;SDS011;20145;43.118;25.694;2023-07-13T12:45:54;9.15;;;4.80;;
33844;SDS011;20145;43.118;25.694;2023-07-13T12:48:21;8.85;;;3.83;;
33844;SDS011;20145;43.118;25.694;2023-07-13T12:50:47;11.45;;;4.15;;
33844;SDS011;20145;43.118;25.694;2023-07-13T12:54:16;6.45;;;3.47;;
33844;SDS011;20145;43.118;25.694;2023-07-13T12:56:21;8.50;;;3.87;;
33844;SDS011;20145;43.118;25.694;2023-07-13T12:58:49;8.57;;;3.70;;
33844;SDS011;20145;43.118;25.694;2023-07-13T13:01:20;9.70;;;4.20;;
33844;SDS011;20145;43.118;25.694;2023-07-13T13:03:51;6.78;;;3.40;;
33844;SDS011;20145;43.118;25.694;2023-07-13T13:08:44;8.65;;;4.32;;
33844;SDS011;20145;43.118;25.694;2023-07-13T13:11:11;7.63;;;4.03;;
33844;SDS011;20145;43.118;25.694;2023-07-13T13:13:36;7.30;;;3.53;;
33844;SDS011;20145;43.118;25.694;2023-07-13T13:16:17;6.70;;;3.33;;
33844;SDS011;20145;43.118;25.694;2023-07-13T13:18:47;6.07;;;3.50;;
33844;SDS011;20145;43.118;25.694;2023-07-13T13:21:13;7.38;;;3.50;;
33844;SDS011;20145;43.118;25.694;2023-07-13T13:23:39;6.70;;;3.42;;
33844;SDS011;20145;43.118;25.694;2023-07-13T13:26:10;7.68;;;3.72;;
33844;SDS011;20145;43.118;25.694;2023-07-13T13:28:36;6.95;;;3.80;;
33844;SDS011;20145;43.118;25.694;2023-07-13T13:31:02;6.07;;;3.30;;
33844;SDS011;20145;43.118;25.694;2023-07-13T13:33:27;6.72;;;3.80;;
33844;SDS011;20145;43.118;25.694;2023-07-13T13:35:53;6.72;;;4.05;;
33844;SDS011;20145;43.118;25.694;2023-07-13T13:38:26;7.10;;;3.85;;
33844;SDS011;20145;43.118;25.694;2023-07-13T13:40:52;11.52;;;3.80;;
33844;SDS011;20145;43.118;25.694;2023-07-13T13:43:20;7.30;;;3.90;;
33844;SDS011;20145;43.118;25.694;2023-07-13T13:45:51;9.38;;;3.63;;
33844;SDS011;20145;43.118;25.694;2023-07-13T13:48:19;9.68;;;3.40;;
33844;SDS011;20145;43.118;25.694;2023-07-13T13:50:55;7.60;;;3.45;;
33844;SDS011;20145;43.118;25.694;2023-07-13T13:53:21;7.22;;;4.28;;
33844;SDS011;20145;43.118;25.694;2023-07-13T13:55:48;8.93;;;4.15;;
33844;SDS011;20145;43.118;25.694;2023-07-13T13:58:15;12.38;;;3.90;;
33844;SDS011;20145;43.118;25.694;2023-07-13T14:00:41;7.13;;;3.97;;
33844;SDS011;20145;43.118;25.694;2023-07-13T14:03:21;8.38;;;4.43;;
33844;SDS011;20145;43.118;25.694;2023-07-13T14:05:47;6.32;;;4.78;;
33844;SDS011;20145;43.118;25.694;2023-07-13T14:08:14;7.68;;;3.95;;
33844;SDS011;20145;43.118;25.694;2023-07-13T14:10:41;6.38;;;4.05;;
33844;SDS011;20145;43.118;25.694;2023-07-13T14:13:07;9.50;;;4.10;;
33844;SDS011;20145;43.118;25.694;2023-07-13T14:15:44;9.07;;;3.97;;
33844;SDS011;20145;43.118;25.694;2023-07-13T14:18:10;9.10;;;4.60;;
33844;SDS011;20145;43.118;25.694;2023-07-13T14:20:36;7.57;;;3.88;;
33844;SDS011;20145;43.118;25.694;2023-07-13T14:23:02;8.50;;;4.68;;
33844;SDS011;20145;43.118;25.694;2023-07-13T14:25:28;14.02;;;9.75;;
33844;SDS011;20145;43.118;25.694;2023-07-13T14:27:55;12.57;;;4.65;;
33844;SDS011;20145;43.118;25.694;2023-07-13T14:30:29;6.25;;;4.68;;
33844;SDS011;20145;43.118;25.694;2023-07-13T14:32:54;7.03;;;3.83;;
33844;SDS011;20145;43.118;25.694;2023-07-13T14:35:20;9.25;;;3.75;;
33844;SDS011;20145;43.118;25.694;2023-07-13T14:37:48;10.15;;;3.92;;
33844;SDS011;20145;43.118;25.694;2023-07-13T14:40:15;7.35;;;3.92;;
33844;SDS011;20145;43.118;25.694;2023-07-13T14:42:51;9.63;;;3.97;;
33844;SDS011;20145;43.118;25.694;2023-07-13T14:45:18;9.32;;;3.33;;
33844;SDS011;20145;43.118;25.694;2023-07-13T14:47:45;6.60;;;3.72;;
33844;SDS011;20145;43.118;25.694;2023-07-13T14:50:18;5.97;;;4.32;;
33844;SDS011;20145;43.118;25.694;2023-07-13T14:52:46;6.25;;;3.90;;
33844;SDS011;20145;43.118;25.694;2023-07-13T14:55:14;5.03;;;3.97;;
33844;SDS011;20145;43.118;25.694;2023-07-13T14:57:41;5.93;;;4.05;;
33844;SDS011;20145;43.118;25.694;2023-07-13T15:00:14;10.18;;;4.20;;
33844;SDS011;20145;43.118;25.694;2023-07-13T15:02:43;7.47;;;4.40;;
33844;SDS011;20145;43.118;25.694;2023-07-13T15:05:18;6.20;;;3.70;;
33844;SDS011;20145;43.118;25.694;2023-07-13T15:07:48;5.63;;;4.00;;
33844;SDS011;20145;43.118;25.694;2023-07-13T15:10:18;7.03;;;4.07;;